createdAt,value
2017-07-24T00:02:25.760Z,100169.42
2017-07-24T00:04:59.244Z,100175.26
2017-07-24T00:07:32.769Z,100168.22
2017-07-24T00:10:06.517Z,100167.73
2017-07-24T00:12:39.143Z,100165.19
2017-07-24T00:15:12.933Z,100157.67
2017-07-24T00:17:45.606Z,100156.43
2017-07-24T00:20:20.099Z,100150.73
2017-07-24T00:22:52.685Z,100163.19
2017-07-24T00:25:25.622Z,100160.46
2017-07-24T00:27:57.672Z,100159.19
2017-07-24T00:30:31.052Z,100161.22
2017-07-24T00:33:03.832Z,100155.98
2017-07-24T00:35:36.035Z,100160.25
2017-07-24T00:38:14.639Z,100164.30
2017-07-24T00:40:47.187Z,100159.65
2017-07-24T00:43:19.563Z,100141.84
2017-07-24T00:45:53.298Z,100138.56
2017-07-24T00:48:26.332Z,100144.42
2017-07-24T00:50:59.812Z,100137.84
2017-07-24T00:53:32.955Z,100123.61
2017-07-24T00:56:08.107Z,100125.77
2017-07-24T00:58:41.724Z,100121.73
2017-07-24T01:01:14.140Z,100112.52
2017-07-24T01:03:47.792Z,100102.97
2017-07-24T01:06:20.747Z,100101.03
2017-07-24T01:08:53.839Z,100089.50
2017-07-24T01:11:27.344Z,100078.15
2017-07-24T01:14:00.629Z,100081.59
2017-07-24T01:16:33.579Z,100076.70
2017-07-24T01:19:06.268Z,100079.64
2017-07-24T01:21:39.101Z,100071.31
2017-07-24T01:24:11.865Z,100067.30
2017-07-24T01:26:44.398Z,100064.64
2017-07-24T01:29:17.059Z,100058.34
2017-07-24T01:31:50.601Z,100053.37
2017-07-24T01:34:24.408Z,100042.33
2017-07-24T01:36:57.360Z,100043.66
2017-07-24T01:39:30.858Z,100035.26
2017-07-24T01:42:06.092Z,100037.42
2017-07-24T01:44:39.006Z,100018.03
2017-07-24T01:47:12.963Z,100019.80
2017-07-24T01:49:45.881Z,100017.57
2017-07-24T01:52:21.183Z,100008.97
2017-07-24T01:54:55.305Z,100006.64
2017-07-24T01:57:28.585Z,100000.36
2017-07-24T02:00:02.579Z,99987.77
2017-07-24T02:02:35.597Z,99988.61
2017-07-24T02:05:08.555Z,99987.50
2017-07-24T02:07:41.339Z,99981.55
2017-07-24T02:10:17.742Z,99983.06
2017-07-24T02:12:50.999Z,99977.41
2017-07-24T02:15:24.309Z,99969.50
2017-07-24T02:17:57.360Z,99968.44
2017-07-24T02:20:30.271Z,99956.20
2017-07-24T02:23:03.725Z,99955.36
2017-07-24T02:25:36.900Z,99949.98
2017-07-24T02:28:11.182Z,99942.97
2017-07-24T02:30:43.575Z,99938.17
2017-07-24T02:33:16.424Z,99938.23
2017-07-24T02:35:49.692Z,99941.86
2017-07-24T02:38:23.275Z,99935.57
2017-07-24T02:40:56.138Z,99923.94
2017-07-24T02:43:29.204Z,99926.66
2017-07-24T02:46:02.497Z,99915.98
2017-07-24T02:48:36.014Z,99919.13
2017-07-24T02:51:10.083Z,99913.69
2017-07-24T02:53:43.298Z,99909.97
2017-07-24T02:56:18.650Z,99917.31
2017-07-24T02:58:50.635Z,99912.81
2017-07-24T03:01:23.833Z,99910.03
2017-07-24T03:03:57.070Z,99905.68
2017-07-24T03:06:30.832Z,99899.19
2017-07-24T03:09:04.090Z,99886.73
2017-07-24T03:11:36.806Z,99884.50
2017-07-24T03:14:13.780Z,99878.64
2017-07-24T03:16:46.119Z,99872.47
2017-07-24T03:19:19.391Z,99861.63
2017-07-24T03:21:51.872Z,99859.09
2017-07-24T03:24:25.095Z,99838.82
2017-07-24T03:26:58.621Z,99830.15
2017-07-24T03:29:31.969Z,99820.09
2017-07-24T03:32:06.733Z,99810.64
2017-07-24T03:34:40.479Z,99804.89
2017-07-24T03:37:13.294Z,99806.80
2017-07-24T03:39:47.128Z,99805.32
2017-07-24T03:42:20.669Z,99809.03
2017-07-24T03:44:53.196Z,99807.56
2017-07-24T03:47:27.979Z,99794.84
2017-07-24T03:50:01.555Z,99790.80
2017-07-24T03:52:34.931Z,99793.88
2017-07-24T03:55:08.065Z,99790.95
2017-07-24T03:57:41.424Z,99789.63
2017-07-24T04:00:15.052Z,99774.52
2017-07-24T04:02:47.390Z,99772.62
2017-07-24T04:05:20.876Z,99770.38
2017-07-24T04:07:54.478Z,99760.11
2017-07-24T04:10:27.246Z,99768.42
2017-07-24T04:12:59.742Z,99776.33
2017-07-24T04:15:36.910Z,99768.78
2017-07-24T04:18:11.556Z,99753.17
2017-07-24T04:20:45.231Z,99749.97
2017-07-24T04:23:18.492Z,99734.08
2017-07-24T04:25:51.993Z,99730.30
2017-07-24T04:28:24.960Z,99727.43
2017-07-24T04:30:57.749Z,99718.72
2017-07-24T04:33:29.829Z,99715.42
2017-07-24T04:36:04.217Z,99712.98
2017-07-24T04:38:37.408Z,99715.00
2017-07-24T04:41:10.216Z,99716.47
2017-07-24T04:43:42.744Z,99719.67
2017-07-24T04:46:17.597Z,99722.22
2017-07-24T04:48:52.458Z,99712.86
2017-07-24T04:51:25.323Z,99708.88
2017-07-24T04:53:57.316Z,99702.23
2017-07-24T04:56:30.102Z,99694.26
2017-07-24T04:59:02.833Z,99692.50
2017-07-24T05:01:35.694Z,99689.27
2017-07-24T05:04:10.757Z,99690.75
2017-07-24T05:06:43.686Z,99684.64
2017-07-24T05:09:17.057Z,99670.39
2017-07-24T05:11:50.022Z,99656.31
2017-07-24T05:14:23.675Z,99646.88
2017-07-24T05:16:57.086Z,99641.31
2017-07-24T05:19:30.256Z,99635.37
2017-07-24T05:22:05.510Z,99628.24
2017-07-24T05:24:38.625Z,99622.30
2017-07-24T05:27:11.612Z,99623.16
2017-07-24T05:29:44.388Z,99612.20
2017-07-24T05:32:17.453Z,99609.38
2017-07-24T05:34:50.714Z,99605.41
2017-07-24T05:37:22.580Z,99604.77
2017-07-24T05:39:54.787Z,99598.65
2017-07-24T05:42:28.201Z,99607.10
2017-07-24T05:45:00.846Z,99603.32
2017-07-24T05:47:34.217Z,99605.25
2017-07-24T05:50:10.017Z,99596.73
2017-07-24T05:52:43.173Z,99596.41
2017-07-24T05:55:16.507Z,99590.39
2017-07-24T05:57:48.943Z,99595.55
2017-07-24T06:00:21.775Z,99596.25
2017-07-24T06:02:53.894Z,99588.23
2017-07-24T06:05:25.787Z,99584.47
2017-07-24T06:07:58.260Z,99585.09
2017-07-24T06:10:30.548Z,99585.00
2017-07-24T06:13:02.477Z,99586.23
2017-07-24T06:15:35.801Z,99579.28
2017-07-24T06:18:09.217Z,99577.09
2017-07-24T06:20:40.901Z,99575.31
2017-07-24T06:23:12.287Z,99572.54
2017-07-24T06:25:43.709Z,99573.07
2017-07-24T06:28:15.209Z,99570.76
2017-07-24T06:30:46.644Z,99557.92
2017-07-24T06:33:18.053Z,99555.96
2017-07-24T06:35:49.456Z,99552.84
2017-07-24T06:38:21.611Z,99554.53
2017-07-24T06:40:53.020Z,99551.03
2017-07-24T06:43:24.377Z,99545.14
2017-07-24T06:45:56.170Z,99539.83
2017-07-24T06:48:27.546Z,99540.05
2017-07-24T06:50:59.215Z,99543.12
2017-07-24T06:53:30.636Z,99541.59
2017-07-24T06:56:04.680Z,99533.11
2017-07-24T06:58:36.706Z,99534.60
2017-07-24T07:01:08.142Z,99537.78
2017-07-24T07:03:39.776Z,99532.48
2017-07-24T07:06:12.657Z,99525.83
2017-07-24T07:08:44.444Z,99530.38
2017-07-24T07:11:15.857Z,99527.48
2017-07-24T07:13:47.818Z,99529.73
2017-07-24T07:16:20.195Z,99522.66
2017-07-24T07:18:51.638Z,99521.56
2017-07-24T07:21:23.326Z,99522.31
2017-07-24T07:23:54.864Z,99524.12
2017-07-24T07:26:26.279Z,99521.03
2017-07-24T07:28:59.028Z,99522.23
2017-07-24T07:31:30.480Z,99525.34
2017-07-24T07:34:05.722Z,99527.59
2017-07-24T07:36:37.126Z,99518.54
2017-07-24T07:39:09.331Z,99547.37
2017-07-24T07:41:40.793Z,99541.48
2017-07-24T07:44:17.401Z,99570.09
2017-07-24T07:46:49.303Z,99581.47
2017-07-24T07:49:20.952Z,99582.56
2017-07-24T07:51:52.452Z,99585.78
2017-07-24T07:54:25.159Z,99587.53
2017-07-24T07:56:56.511Z,99585.23
2017-07-24T07:59:28.281Z,99591.84
2017-07-24T08:02:00.337Z,99596.23
2017-07-24T08:04:31.766Z,99605.01
2017-07-24T08:07:03.144Z,99606.13
2017-07-24T08:09:34.699Z,99622.08
2017-07-24T08:12:09.617Z,99608.56
2017-07-24T08:14:41.147Z,99611.42
2017-07-24T08:17:13.074Z,99625.56
2017-07-24T08:19:44.666Z,99629.98
2017-07-24T08:22:18.514Z,99635.79
2017-07-24T08:24:50.967Z,99641.39
2017-07-24T08:27:22.483Z,99638.33
2017-07-24T08:29:54.189Z,99663.42
2017-07-24T08:32:25.556Z,99664.27
2017-07-24T08:34:57.711Z,99671.67
2017-07-24T08:37:29.437Z,99664.22
2017-07-24T08:42:34.493Z,99682.39
2017-07-24T08:45:06.033Z,99692.12
2017-07-24T08:47:37.383Z,99690.84
2017-07-24T08:50:14.504Z,99685.51
2017-07-24T08:52:47.085Z,99684.28
2017-07-24T08:55:19.462Z,99678.43
2017-07-24T08:57:50.867Z,99688.64
2017-07-24T09:00:23.448Z,99689.72
2017-07-24T09:02:54.836Z,99699.44
2017-07-24T09:05:26.212Z,99704.91
2017-07-24T09:07:58.205Z,99718.67
2017-07-24T09:10:29.589Z,99724.66
2017-07-24T09:13:00.998Z,99728.45
2017-07-24T09:15:33.012Z,99730.02
2017-07-24T09:18:05.699Z,99735.41
2017-07-24T09:20:37.048Z,99744.48
2017-07-24T09:23:08.551Z,99753.76
2017-07-24T09:25:39.980Z,99750.47
2017-07-24T09:28:12.998Z,99750.78
2017-07-24T09:30:44.412Z,99752.84
2017-07-24T09:33:16.241Z,99751.88
2017-07-24T09:35:47.662Z,99747.55
2017-07-24T09:38:20.848Z,99746.09
2017-07-24T09:40:53.618Z,99748.87
2017-07-24T09:43:25.970Z,99753.52
2017-07-24T09:45:57.365Z,99757.77
2017-07-24T09:48:29.199Z,99755.79
2017-07-24T09:51:00.767Z,99758.25
2017-07-24T09:53:32.213Z,99754.67
2017-07-24T09:56:05.136Z,99765.86
2017-07-24T09:58:36.568Z,99764.56
2017-07-24T10:01:07.966Z,99772.19
2017-07-24T10:03:40.013Z,99771.52
2017-07-24T10:06:12.530Z,99763.29
2017-07-24T10:08:44.086Z,99760.12
2017-07-24T10:11:15.603Z,99760.73
2017-07-24T10:13:47.047Z,99764.25
2017-07-24T10:16:20.972Z,99759.23
2017-07-24T10:18:52.406Z,99760.88
2017-07-24T10:21:23.833Z,99759.31
2017-07-24T10:23:55.398Z,99758.75
2017-07-24T10:26:26.853Z,99766.66
2017-07-24T10:28:58.310Z,99763.26
2017-07-24T10:31:30.155Z,99769.02
2017-07-24T10:34:01.588Z,99761.88
2017-07-24T10:36:33.052Z,99753.05
2017-07-24T10:39:04.617Z,99758.05
2017-07-24T10:41:36.004Z,99763.63
2017-07-24T10:44:08.198Z,99763.18
2017-07-24T10:46:39.573Z,99765.19
2017-07-24T10:49:12.500Z,99771.47
2017-07-24T10:51:44.089Z,99760.33
2017-07-24T10:54:17.375Z,99760.28
2017-07-24T10:56:49.013Z,99762.60
2017-07-24T10:59:20.485Z,99761.85
2017-07-24T11:01:53.359Z,99750.44
2017-07-24T11:04:24.878Z,99751.30
2017-07-24T11:06:56.474Z,99759.56
2017-07-24T11:09:29.910Z,99764.19
2017-07-24T11:12:04.164Z,99754.38
2017-07-24T11:14:36.511Z,99761.38
2017-07-24T11:17:11.783Z,99755.56
2017-07-24T11:19:44.059Z,99755.98
2017-07-24T11:22:18.400Z,99757.11
2017-07-24T11:24:52.930Z,99755.82
2017-07-24T11:27:29.710Z,99754.83
2017-07-24T11:32:57.255Z,99756.61
2017-07-24T11:35:30.505Z,99764.13
2017-07-24T11:38:02.750Z,99760.66
2017-07-24T11:40:34.940Z,99759.87
2017-07-24T11:43:06.469Z,99756.74
2017-07-24T11:45:37.927Z,99751.83
2017-07-24T11:48:10.181Z,99754.17
2017-07-24T11:50:41.702Z,99756.57
2017-07-24T11:53:14.722Z,99758.33
2017-07-24T11:55:46.555Z,99750.31
2017-07-24T12:01:14.553Z,99749.58
2017-07-24T12:03:46.593Z,99758.03
2017-07-24T12:06:19.963Z,99755.02
2017-07-24T12:08:52.211Z,99752.34
2017-07-24T12:11:23.619Z,99754.80
2017-07-24T12:13:55.355Z,99755.27
2017-07-24T12:16:26.714Z,99765.61
2017-07-24T12:18:58.159Z,99750.52
2017-07-24T12:21:40.990Z,99747.47
2017-07-24T12:24:21.686Z,99748.84
2017-07-24T12:29:48.557Z,99745.73
2017-07-24T12:32:19.978Z,99753.09
2017-07-24T12:34:51.775Z,99753.36
2017-07-24T12:37:23.164Z,99746.62
2017-07-24T12:39:55.184Z,99747.14
2017-07-24T12:42:27.966Z,99751.60
2017-07-24T12:45:03.840Z,99747.20
2017-07-24T12:50:30.646Z,99750.26
2017-07-24T12:53:02.346Z,99754.12
2017-07-24T12:55:33.949Z,99745.87
2017-07-24T12:58:08.621Z,99747.31
2017-07-24T13:00:40.450Z,99728.54
2017-07-24T13:03:13.702Z,99732.20
2017-07-24T13:05:49.521Z,99733.61
2017-07-24T13:08:29.008Z,99742.83
2017-07-24T13:11:03.284Z,99745.72
2017-07-24T13:13:37.756Z,99756.33
2017-07-24T13:16:12.035Z,99751.78
2017-07-24T13:18:45.685Z,99750.39
2017-07-24T13:21:24.358Z,99751.28
2017-07-24T13:23:59.889Z,99751.98
2017-07-24T13:26:41.980Z,99752.38
2017-07-24T13:29:18.089Z,99759.47
2017-07-24T13:31:55.305Z,99766.30
2017-07-24T13:37:40.654Z,99748.95
2017-07-24T13:40:15.894Z,99767.63
2017-07-24T13:42:51.028Z,99774.43
2017-07-24T13:45:24.010Z,99779.67
2017-07-24T13:47:57.631Z,99775.74
2017-07-24T13:50:35.181Z,99772.44
2017-07-24T13:53:13.042Z,99763.98
2017-07-24T13:55:48.678Z,99765.39
2017-07-24T13:58:26.900Z,99771.70
2017-07-24T14:01:01.620Z,99780.92
2017-07-24T14:03:39.776Z,99782.83
2017-07-24T14:06:43.529Z,99775.44
2017-07-24T14:09:37.957Z,99780.73
2017-07-24T14:15:12.303Z,99786.64
2017-07-24T14:20:40.711Z,99786.70
2017-07-24T14:23:12.440Z,99790.69
2017-07-24T14:25:44.232Z,99806.27
2017-07-24T14:31:13.531Z,99808.23
2017-07-24T14:33:45.924Z,99810.84
2017-07-24T14:36:18.212Z,99819.38
2017-07-24T14:38:49.800Z,99820.76
2017-07-24T14:41:21.282Z,99821.88
2017-07-24T14:43:54.091Z,99824.59
2017-07-24T14:46:25.716Z,99819.77
2017-07-24T14:48:57.482Z,99830.29
2017-07-24T14:51:28.913Z,99815.78
2017-07-24T14:54:00.355Z,99814.54
2017-07-24T14:59:29.690Z,99799.55
2017-07-24T15:02:01.482Z,99797.48
2017-07-24T15:04:33.896Z,99803.80
2017-07-24T15:07:06.191Z,99809.25
2017-07-24T15:09:37.736Z,99817.37
2017-07-24T15:12:09.211Z,99829.74
2017-07-24T15:14:41.025Z,99838.67
2017-07-24T15:17:12.529Z,99837.33
2017-07-24T15:19:43.917Z,99832.34
2017-07-24T15:22:15.855Z,99836.30
2017-07-24T15:24:47.363Z,99834.63
2017-07-24T15:27:18.832Z,99827.52
2017-07-24T15:29:50.663Z,99842.75
2017-07-24T15:32:22.269Z,99853.84
2017-07-24T15:34:53.690Z,99859.67
2017-07-24T15:37:25.541Z,99854.92
2017-07-24T15:39:56.951Z,99862.77
2017-07-24T15:42:28.513Z,99858.52
2017-07-24T15:47:41.096Z,99865.67
2017-07-24T15:50:13.146Z,99866.34
2017-07-24T15:52:44.561Z,99866.87
2017-07-24T15:55:19.548Z,99868.30
2017-07-24T15:57:51.064Z,99873.22
2017-07-24T16:00:24.311Z,99876.39
2017-07-24T16:02:56.459Z,99874.39
2017-07-24T16:05:28.895Z,99870.97
2017-07-24T16:08:06.153Z,99866.19
2017-07-24T16:10:38.665Z,99865.98
2017-07-24T16:13:13.820Z,99874.34
2017-07-24T16:15:48.162Z,99875.14
2017-07-24T16:18:23.875Z,99872.23
2017-07-24T16:20:59.098Z,99868.23
2017-07-24T16:23:32.374Z,99867.94
2017-07-24T16:26:13.671Z,99866.42
2017-07-24T16:31:45.192Z,99871.73
2017-07-24T16:34:20.395Z,99867.21
2017-07-24T16:36:52.174Z,99869.29
2017-07-24T16:39:26.449Z,99864.55
2017-07-24T16:42:00.244Z,99856.12
2017-07-24T16:44:35.031Z,99859.82
2017-07-24T16:47:12.039Z,99853.06
2017-07-24T16:49:43.638Z,99858.03
2017-07-24T16:52:18.500Z,99855.62
2017-07-24T16:54:50.418Z,99851.69
2017-07-24T16:57:34.340Z,99850.21
2017-07-24T17:05:02.774Z,99854.86
2017-07-24T17:07:35.008Z,99850.64
2017-07-24T17:10:10.785Z,99852.91
2017-07-24T17:36:03.740Z,99862.27
2017-07-24T17:38:36.188Z,99866.09
2017-07-24T17:41:07.927Z,99862.45
2017-07-24T17:43:40.351Z,99863.44
2017-07-24T17:46:12.806Z,99867.44
2017-07-24T17:48:44.341Z,99862.42
2017-07-24T17:51:16.678Z,99867.34
2017-07-24T17:53:48.102Z,99864.60
2017-07-24T17:59:15.483Z,99864.47
2017-07-24T18:01:47.835Z,99869.57
2017-07-24T18:04:51.092Z,99869.67
2017-07-24T18:07:26.424Z,99873.89
2017-07-24T18:12:55.273Z,99871.72
2017-07-24T18:15:27.221Z,99876.69
2017-07-24T18:17:59.010Z,99880.96
2017-07-24T18:20:30.620Z,99863.81
2017-07-24T18:23:03.485Z,99874.08
2017-07-24T18:25:36.050Z,99869.62
2017-07-24T18:28:11.952Z,99878.51
2017-07-24T18:30:43.693Z,99874.26
2017-07-24T18:33:15.224Z,99891.87
2017-07-24T18:35:47.205Z,99889.98
2017-07-24T18:38:20.497Z,99894.72
2017-07-24T18:40:53.988Z,99891.09
2017-07-24T18:43:29.172Z,99892.01
2017-07-24T18:49:14.888Z,99894.87
2017-07-24T18:52:06.384Z,99893.68
2017-07-24T19:00:42.652Z,99904.05
2017-07-24T19:03:14.992Z,99900.66
2017-07-24T19:05:46.932Z,99899.83
2017-07-24T19:08:21.212Z,99906.00
2017-07-24T19:10:53.645Z,99908.99
2017-07-24T19:13:25.785Z,99914.36
2017-07-24T19:15:58.104Z,99914.94
2017-07-24T19:18:30.226Z,99918.00
2017-07-24T19:21:04.878Z,99919.83
2017-07-24T19:23:37.054Z,99925.16
2017-07-24T19:26:08.975Z,99925.09
2017-07-24T19:28:40.696Z,99926.95
2017-07-24T19:31:12.238Z,99932.77
2017-07-24T19:33:44.172Z,99933.19
2017-07-24T19:36:17.242Z,99933.58
2017-07-24T19:38:48.954Z,99936.70
2017-07-24T19:41:21.401Z,99933.25
2017-07-24T19:43:55.340Z,99935.72
2017-07-24T19:46:28.618Z,99935.88
2017-07-24T19:49:00.353Z,99939.28
2017-07-24T19:51:32.124Z,99943.06
2017-07-24T19:54:07.167Z,99949.06
2017-07-24T19:56:40.178Z,99941.60
2017-07-24T19:59:14.232Z,99949.22
2017-07-24T20:08:00.179Z,99946.08
2017-07-24T20:10:31.861Z,99943.23
2017-07-24T20:13:03.846Z,99941.41
2017-07-24T20:15:36.243Z,99942.13
2017-07-24T20:18:13.486Z,99940.72
2017-07-24T20:20:46.360Z,99936.47
2017-07-24T20:23:19.968Z,99939.55
2017-07-24T20:25:52.816Z,99937.66
2017-07-24T20:28:24.662Z,99939.71
2017-07-24T20:30:56.590Z,99935.83
2017-07-24T20:33:28.057Z,99937.63
2017-07-24T20:36:00.155Z,99939.91
2017-07-24T20:38:31.626Z,99941.31
2017-07-24T20:41:04.804Z,99942.17
2017-07-24T20:43:38.702Z,99940.91
2017-07-24T20:46:10.470Z,99937.86
2017-07-24T20:48:42.333Z,99939.19
2017-07-24T20:51:13.820Z,99936.56
2017-07-24T20:53:45.298Z,99941.87
2017-07-24T20:56:17.406Z,99929.28
2017-07-24T20:58:49.440Z,99925.92
2017-07-24T21:01:21.363Z,99933.51
2017-07-24T21:03:54.490Z,99943.98
2017-07-24T21:06:26.405Z,99930.04
2017-07-24T21:09:00.743Z,99931.37
2017-07-24T21:11:35.051Z,99934.30
2017-07-24T21:14:09.849Z,99935.23
2017-07-24T21:16:46.835Z,99929.76
2017-07-24T21:19:19.974Z,99928.74
2017-07-24T21:21:52.714Z,99929.00
2017-07-24T21:24:25.559Z,99934.25
2017-07-24T21:26:59.287Z,99927.36
2017-07-24T21:29:32.832Z,99922.30
2017-07-24T21:32:08.652Z,99933.28
2017-07-24T21:34:40.364Z,99939.36
2017-07-24T21:37:20.101Z,99934.05
2017-07-24T21:39:58.347Z,99942.62
2017-07-24T21:42:35.670Z,99941.75
2017-07-24T21:45:16.834Z,99943.05
2017-07-24T21:47:54.323Z,99944.10
2017-07-24T21:50:31.837Z,99950.36
2017-07-24T21:53:04.568Z,99948.98
2017-07-24T21:55:36.195Z,99950.59
2017-07-24T21:58:09.134Z,99955.71
2017-07-24T22:00:42.142Z,99946.19
2017-07-24T22:03:13.760Z,99944.33
2017-07-24T22:05:47.316Z,99949.46
2017-07-24T22:08:20.140Z,99948.92
2017-07-24T22:10:55.399Z,99950.27
2017-07-24T22:13:27.490Z,99949.98
2017-07-24T22:15:59.358Z,99953.63
2017-07-24T22:18:32.243Z,99953.70
2017-07-24T22:21:05.118Z,99952.19
2017-07-24T22:23:37.620Z,99949.96
2017-07-24T22:26:09.341Z,99945.22
2017-07-24T22:28:41.197Z,99941.09
2017-07-24T22:31:13.186Z,99939.95
2017-07-24T22:33:45.666Z,99947.08
2017-07-24T22:36:18.620Z,99945.39
2017-07-24T22:38:51.416Z,99944.10
2017-07-24T22:41:23.971Z,99946.33
2017-07-24T22:43:55.573Z,99948.13
2017-07-24T22:46:27.095Z,99945.09
2017-07-24T22:48:59.715Z,99946.19
2017-07-24T22:51:33.549Z,99945.66
2017-07-24T22:54:11.410Z,99946.58
2017-07-24T22:56:43.206Z,99946.27
2017-07-24T22:59:17.051Z,99944.58
2017-07-24T23:01:48.528Z,99943.08
2017-07-24T23:04:20.733Z,99940.66
2017-07-24T23:06:53.615Z,99943.39
2017-07-24T23:09:26.929Z,99945.59
2017-07-24T23:11:58.611Z,99944.91
2017-07-24T23:14:30.418Z,99943.98
2017-07-24T23:17:02.176Z,99946.59
2017-07-24T23:19:34.318Z,99951.17
2017-07-24T23:22:07.031Z,99949.97
2017-07-24T23:24:38.511Z,99952.13
2017-07-24T23:27:09.976Z,99952.93
2017-07-24T23:29:41.450Z,99950.98
2017-07-24T23:32:13.489Z,99957.38
2017-07-24T23:34:45.204Z,99955.91
2017-07-24T23:37:17.044Z,99957.88
2017-07-24T23:39:49.054Z,99953.39
2017-07-24T23:42:20.695Z,99952.82
2017-07-24T23:44:52.264Z,99946.52
2017-07-24T23:47:25.063Z,99941.66
2017-07-24T23:49:57.410Z,99949.00
2017-07-24T23:52:29.420Z,99945.31
2017-07-24T23:55:01.652Z,99943.84
2017-07-24T23:57:33.277Z,99942.37
